MAS1058 WMKJ-WMKK
Flight info
| Callsign | MAS1058 |
|---|---|
| Flight time | 0h 35m |
| Altitude | 20000 |
| Route | SABKA1K SABKA A457 GUPTA GUPTA1G |
| Aircraft | B738/M-SDE2E3FGHIRWXY/LB1 |
Departure
| Time | 2026-05-05 13:33 |
|---|---|
| Airport | Senai International Airport (WMKJ) |
Arrival
| Time | 2026-05-05 14:08 |
|---|---|
| Airport | Kuala Lumpur International Airport (WMKK) |
| Time | Latitude | Longitude | Altitude | Speed | Heading |
|---|---|---|---|---|---|
| 2026-05-05 13:17 | 1.63609 | 103.66741 | 199 ft | 0 kts | 249° |
| 2026-05-05 13:24 | 1.63612 | 103.66750 | 212 ft | 4 kts | 250° |
| 2026-05-05 13:24 | 1.63624 | 103.66783 | 204 ft | 4 kts | 247° |
| 2026-05-05 13:25 | 1.63635 | 103.66808 | 212 ft | 4 kts | 246° |
| 2026-05-05 13:25 | 1.63644 | 103.66826 | 212 ft | 0 kts | 243° |
| 2026-05-05 13:27 | 1.63643 | 103.66825 | 212 ft | 1 kts | 236° |
| 2026-05-05 13:27 | 1.63635 | 103.66822 | 212 ft | 1 kts | 194° |
| 2026-05-05 13:27 | 1.63619 | 103.66824 | 209 ft | 3 kts | 167° |
| 2026-05-05 13:28 | 1.63591 | 103.66834 | 209 ft | 5 kts | 159° |
| 2026-05-05 13:28 | 1.63535 | 103.66855 | 208 ft | 8 kts | 159° |
| 2026-05-05 13:28 | 1.63497 | 103.66869 | 210 ft | 9 kts | 160° |
| 2026-05-05 13:28 | 1.63433 | 103.66892 | 209 ft | 11 kts | 162° |
| 2026-05-05 13:29 | 1.63368 | 103.66932 | 206 ft | 12 kts | 103° |
| 2026-05-05 13:29 | 1.63349 | 103.67010 | 203 ft | 13 kts | 141° |
| 2026-05-05 13:29 | 1.63265 | 103.67048 | 205 ft | 14 kts | 159° |
| 2026-05-05 13:29 | 1.63170 | 103.67086 | 207 ft | 15 kts | 164° |
| 2026-05-05 13:30 | 1.63068 | 103.67120 | 204 ft | 16 kts | 159° |
| 2026-05-05 13:30 | 1.62962 | 103.67158 | 202 ft | 16 kts | 160° |
| 2026-05-05 13:30 | 1.62859 | 103.67194 | 210 ft | 16 kts | 158° |
| 2026-05-05 13:30 | 1.62755 | 103.67235 | 210 ft | 16 kts | 155° |
| 2026-05-05 13:31 | 1.62725 | 103.67328 | 199 ft | 16 kts | 75° |
| 2026-05-05 13:31 | 1.62758 | 103.67413 | 208 ft | 7 kts | 0° |
| 2026-05-05 13:31 | 1.62770 | 103.67409 | 206 ft | 2 kts | 343° |
| 2026-05-05 13:31 | 1.62775 | 103.67408 | 200 ft | 0 kts | 341° |
| 2026-05-05 13:32 | 1.62780 | 103.67406 | 200 ft | 4 kts | 341° |
| 2026-05-05 13:32 | 1.63018 | 103.67319 | 202 ft | 77 kts | 340° |
| 2026-05-05 13:33 | 1.63723 | 103.67055 | 203 ft | 146 kts | 336° |
| 2026-05-05 13:33 | 1.64682 | 103.66597 | 573 ft | 166 kts | 336° |
| 2026-05-05 13:33 | 1.65727 | 103.65972 | 1166 ft | 185 kts | 324° |
| 2026-05-05 13:33 | 1.66784 | 103.65122 | 1868 ft | 201 kts | 324° |
| 2026-05-05 13:34 | 1.67972 | 103.64349 | 2717 ft | 206 kts | 317° |
| 2026-05-05 13:34 | 1.68740 | 103.63112 | 3353 ft | 215 kts | 293° |
| 2026-05-05 13:34 | 1.69334 | 103.61717 | 3957 ft | 223 kts | 294° |
| 2026-05-05 13:34 | 1.69984 | 103.60228 | 4154 ft | 246 kts | 294° |
| 2026-05-05 13:35 | 1.70711 | 103.58598 | 4401 ft | 268 kts | 295° |
| 2026-05-05 13:35 | 1.71498 | 103.56865 | 5039 ft | 275 kts | 295° |
| 2026-05-05 13:35 | 1.72300 | 103.55123 | 5675 ft | 277 kts | 295° |
| 2026-05-05 13:35 | 1.73120 | 103.53361 | 5993 ft | 279 kts | 295° |
| 2026-05-05 13:36 | 1.73947 | 103.51598 | 6005 ft | 281 kts | 295° |
| 2026-05-05 13:36 | 1.74776 | 103.49838 | 6039 ft | 281 kts | 295° |
| 2026-05-05 13:36 | 1.75622 | 103.48049 | 6470 ft | 286 kts | 296° |
| 2026-05-05 13:36 | 1.76467 | 103.46266 | 7276 ft | 284 kts | 296° |
| 2026-05-05 13:37 | 1.77319 | 103.44470 | 7992 ft | 287 kts | 296° |
| 2026-05-05 13:37 | 1.78181 | 103.42655 | 8651 ft | 291 kts | 296° |
| 2026-05-05 13:37 | 1.79036 | 103.40853 | 9321 ft | 294 kts | 295° |
| 2026-05-05 13:37 | 1.79932 | 103.38968 | 9995 ft | 297 kts | 295° |
| 2026-05-05 13:38 | 1.80821 | 103.37094 | 10389 ft | 311 kts | 295° |
| 2026-05-05 13:38 | 1.81782 | 103.35068 | 10534 ft | 332 kts | 295° |
| 2026-05-05 13:38 | 1.82798 | 103.32927 | 10688 ft | 352 kts | 295° |
| 2026-05-05 13:38 | 1.83869 | 103.30673 | 10988 ft | 363 kts | 295° |
| 2026-05-05 13:39 | 1.84963 | 103.28373 | 11451 ft | 369 kts | 296° |
| 2026-05-05 13:39 | 1.86086 | 103.26059 | 12022 ft | 372 kts | 296° |
| 2026-05-05 13:39 | 1.87233 | 103.23728 | 12625 ft | 374 kts | 297° |
| 2026-05-05 13:39 | 1.88386 | 103.21392 | 13167 ft | 379 kts | 297° |
| 2026-05-05 13:40 | 1.89558 | 103.19015 | 13704 ft | 383 kts | 297° |
| 2026-05-05 13:40 | 1.90740 | 103.16610 | 14206 ft | 387 kts | 297° |
| 2026-05-05 13:40 | 1.91928 | 103.14191 | 14726 ft | 390 kts | 297° |
| 2026-05-05 13:40 | 1.93127 | 103.11748 | 15259 ft | 392 kts | 297° |
| 2026-05-05 13:41 | 1.94331 | 103.09291 | 15789 ft | 395 kts | 297° |
| 2026-05-05 13:41 | 1.95547 | 103.06808 | 16286 ft | 399 kts | 297° |
| 2026-05-05 13:41 | 1.96772 | 103.04307 | 16774 ft | 403 kts | 297° |
| 2026-05-05 13:41 | 1.98004 | 103.01792 | 17247 ft | 406 kts | 297° |
| 2026-05-05 13:42 | 1.99173 | 102.99405 | 17712 ft | 409 kts | 297° |
| 2026-05-05 13:42 | 2.00416 | 102.96866 | 18171 ft | 413 kts | 297° |
| 2026-05-05 13:42 | 2.01682 | 102.94276 | 18568 ft | 416 kts | 297° |
| 2026-05-05 13:42 | 2.02954 | 102.91678 | 19010 ft | 418 kts | 297° |
| 2026-05-05 13:43 | 2.04232 | 102.89071 | 19467 ft | 418 kts | 297° |
| 2026-05-05 13:43 | 2.05515 | 102.86447 | 19836 ft | 421 kts | 297° |
| 2026-05-05 13:43 | 2.06802 | 102.83802 | 19883 ft | 428 kts | 296° |
| 2026-05-05 13:43 | 2.08112 | 102.81102 | 19901 ft | 437 kts | 296° |
| 2026-05-05 13:44 | 2.09452 | 102.78335 | 19906 ft | 445 kts | 296° |
| 2026-05-05 13:44 | 2.10796 | 102.75556 | 19902 ft | 453 kts | 296° |
| 2026-05-05 13:44 | 2.12167 | 102.72726 | 19901 ft | 459 kts | 296° |
| 2026-05-05 13:44 | 2.13570 | 102.69833 | 19898 ft | 465 kts | 296° |
| 2026-05-05 13:45 | 2.15062 | 102.67014 | 19881 ft | 462 kts | 304° |
| 2026-05-05 13:45 | 2.17082 | 102.64543 | 19900 ft | 459 kts | 317° |
| 2026-05-05 13:45 | 2.19538 | 102.62522 | 19897 ft | 456 kts | 327° |
| 2026-05-05 13:45 | 2.22310 | 102.60987 | 19897 ft | 455 kts | 335° |
| 2026-05-05 13:46 | 2.25151 | 102.59594 | 19893 ft | 455 kts | 335° |
| 2026-05-05 13:46 | 2.28024 | 102.58182 | 19886 ft | 456 kts | 335° |
| 2026-05-05 13:46 | 2.30832 | 102.56784 | 19889 ft | 456 kts | 335° |
| 2026-05-05 13:46 | 2.33665 | 102.55354 | 19890 ft | 457 kts | 334° |
| 2026-05-05 13:47 | 2.36493 | 102.53915 | 19891 ft | 457 kts | 334° |
| 2026-05-05 13:47 | 2.39343 | 102.52459 | 19898 ft | 458 kts | 334° |
| 2026-05-05 13:47 | 2.42170 | 102.51013 | 19896 ft | 458 kts | 334° |
| 2026-05-05 13:47 | 2.45007 | 102.49564 | 19894 ft | 458 kts | 334° |
| 2026-05-05 13:48 | 2.47845 | 102.48116 | 19895 ft | 458 kts | 334° |
| 2026-05-05 13:48 | 2.50604 | 102.46509 | 19884 ft | 459 kts | 326° |
| 2026-05-05 13:48 | 2.53074 | 102.44494 | 19891 ft | 461 kts | 316° |
| 2026-05-05 13:48 | 2.55218 | 102.42156 | 19898 ft | 448 kts | 312° |
| 2026-05-05 13:49 | 2.57249 | 102.39856 | 19754 ft | 434 kts | 313° |
| 2026-05-05 13:49 | 2.59278 | 102.37608 | 19352 ft | 427 kts | 313° |
| 2026-05-05 13:49 | 2.61261 | 102.35449 | 18843 ft | 424 kts | 314° |
| 2026-05-05 13:49 | 2.63240 | 102.33309 | 18304 ft | 422 kts | 314° |
| 2026-05-05 13:50 | 2.65233 | 102.31153 | 17713 ft | 419 kts | 314° |
| 2026-05-05 13:50 | 2.67188 | 102.29035 | 17165 ft | 416 kts | 314° |
| 2026-05-05 13:50 | 2.69143 | 102.26914 | 16986 ft | 402 kts | 314° |
| 2026-05-05 13:50 | 2.71038 | 102.24922 | 16751 ft | 392 kts | 316° |
| 2026-05-05 13:51 | 2.72986 | 102.23056 | 16506 ft | 382 kts | 318° |
| 2026-05-05 13:51 | 2.74908 | 102.21254 | 16267 ft | 374 kts | 318° |
| 2026-05-05 13:51 | 2.76779 | 102.19486 | 16040 ft | 366 kts | 318° |
| 2026-05-05 13:51 | 2.78586 | 102.17761 | 15813 ft | 359 kts | 316° |
| 2026-05-05 13:52 | 2.80055 | 102.15781 | 15564 ft | 355 kts | 296° |
| 2026-05-05 13:52 | 2.80790 | 102.13453 | 15381 ft | 347 kts | 283° |
| 2026-05-05 13:52 | 2.81256 | 102.11112 | 15164 ft | 341 kts | 281° |
| 2026-05-05 13:52 | 2.81681 | 102.08797 | 14948 ft | 336 kts | 281° |
| 2026-05-05 13:53 | 2.82098 | 102.06524 | 14734 ft | 330 kts | 281° |
| 2026-05-05 13:53 | 2.82518 | 102.04282 | 14530 ft | 326 kts | 281° |
| 2026-05-05 13:53 | 2.82943 | 102.02056 | 14324 ft | 324 kts | 281° |
| 2026-05-05 13:53 | 2.83361 | 101.99895 | 14126 ft | 323 kts | 282° |
| 2026-05-05 13:54 | 2.83772 | 101.97777 | 13932 ft | 321 kts | 281° |
| 2026-05-05 13:54 | 2.84197 | 101.95592 | 13742 ft | 320 kts | 281° |
| 2026-05-05 13:54 | 2.84625 | 101.93406 | 13512 ft | 318 kts | 281° |
| 2026-05-05 13:54 | 2.85041 | 101.91281 | 13294 ft | 312 kts | 281° |
| 2026-05-05 13:55 | 2.85461 | 101.89145 | 13081 ft | 307 kts | 281° |
| 2026-05-05 13:55 | 2.85538 | 101.87062 | 12845 ft | 302 kts | 258° |
| 2026-05-05 13:55 | 2.84801 | 101.85151 | 12576 ft | 298 kts | 238° |
| 2026-05-05 13:55 | 2.83656 | 101.83426 | 12287 ft | 295 kts | 235° |
| 2026-05-05 13:56 | 2.82461 | 101.81790 | 11968 ft | 295 kts | 226° |
| 2026-05-05 13:56 | 2.80779 | 101.80663 | 11651 ft | 288 kts | 198° |
| 2026-05-05 13:56 | 2.78850 | 101.80377 | 11486 ft | 281 kts | 175° |
| 2026-05-05 13:56 | 2.76984 | 101.80828 | 11192 ft | 279 kts | 154° |
| 2026-05-05 13:57 | 2.75321 | 101.81802 | 10921 ft | 277 kts | 146° |
| 2026-05-05 13:57 | 2.73730 | 101.82883 | 10632 ft | 277 kts | 145° |
| 2026-05-05 13:57 | 2.72147 | 101.83977 | 10345 ft | 277 kts | 145° |
| 2026-05-05 13:57 | 2.70555 | 101.85072 | 10056 ft | 277 kts | 145° |
| 2026-05-05 13:58 | 2.68970 | 101.86152 | 9762 ft | 277 kts | 146° |
| 2026-05-05 13:58 | 2.67396 | 101.87216 | 9450 ft | 277 kts | 146° |
| 2026-05-05 13:58 | 2.65801 | 101.88287 | 9154 ft | 277 kts | 146° |
| 2026-05-05 13:58 | 2.64205 | 101.89357 | 8866 ft | 276 kts | 146° |
| 2026-05-05 13:59 | 2.61084 | 101.91449 | 8279 ft | 264 kts | 146° |
| 2026-05-05 13:59 | 2.59583 | 101.92455 | 8008 ft | 257 kts | 146° |
| 2026-05-05 14:00 | 2.56689 | 101.94393 | 7494 ft | 244 kts | 146° |
| 2026-05-05 14:00 | 2.55742 | 101.95026 | 7338 ft | 241 kts | 146° |
| 2026-05-05 14:00 | 2.53728 | 101.95823 | 7004 ft | 239 kts | 182° |
| 2026-05-05 14:00 | 2.52162 | 101.95351 | 6794 ft | 239 kts | 214° |
| 2026-05-05 14:01 | 2.50990 | 101.94209 | 6574 ft | 239 kts | 234° |
| 2026-05-05 14:01 | 2.50032 | 101.92830 | 6303 ft | 242 kts | 237° |
| 2026-05-05 14:01 | 2.49267 | 101.91319 | 5843 ft | 246 kts | 263° |
| 2026-05-05 14:01 | 2.49492 | 101.89728 | 5715 ft | 234 kts | 301° |
| 2026-05-05 14:02 | 2.50589 | 101.88602 | 5502 ft | 229 kts | 327° |
| 2026-05-05 14:02 | 2.51918 | 101.87694 | 5193 ft | 232 kts | 327° |
| 2026-05-05 14:02 | 2.53267 | 101.86786 | 4910 ft | 235 kts | 327° |
| 2026-05-05 14:02 | 2.54606 | 101.85887 | 4597 ft | 228 kts | 327° |
| 2026-05-05 14:03 | 2.55900 | 101.85015 | 4290 ft | 219 kts | 327° |
| 2026-05-05 14:03 | 2.57139 | 101.84179 | 4003 ft | 211 kts | 327° |
| 2026-05-05 14:03 | 2.58340 | 101.83368 | 3737 ft | 204 kts | 327° |
| 2026-05-05 14:03 | 2.59495 | 101.82587 | 3482 ft | 199 kts | 327° |
| 2026-05-05 14:04 | 2.60616 | 101.81830 | 3252 ft | 187 kts | 327° |
| 2026-05-05 14:04 | 2.61645 | 101.81135 | 2998 ft | 170 kts | 326° |
| 2026-05-05 14:04 | 2.62573 | 101.80509 | 2813 ft | 156 kts | 327° |
| 2026-05-05 14:04 | 2.63461 | 101.79910 | 2603 ft | 152 kts | 327° |
| 2026-05-05 14:05 | 2.64332 | 101.79322 | 2410 ft | 151 kts | 326° |
| 2026-05-05 14:05 | 2.65207 | 101.78730 | 2212 ft | 152 kts | 326° |
| 2026-05-05 14:05 | 2.66075 | 101.78144 | 2013 ft | 150 kts | 326° |
| 2026-05-05 14:05 | 2.66939 | 101.77560 | 1819 ft | 149 kts | 326° |
| 2026-05-05 14:06 | 2.67797 | 101.76980 | 1626 ft | 149 kts | 326° |
| 2026-05-05 14:06 | 2.68644 | 101.76407 | 1436 ft | 148 kts | 326° |
| 2026-05-05 14:06 | 2.69499 | 101.75830 | 1245 ft | 148 kts | 327° |
| 2026-05-05 14:06 | 2.70348 | 101.75256 | 1055 ft | 147 kts | 326° |
| 2026-05-05 14:07 | 2.71188 | 101.74688 | 894 ft | 147 kts | 327° |
| 2026-05-05 14:07 | 2.72026 | 101.74122 | 724 ft | 146 kts | 328° |
| 2026-05-05 14:07 | 2.72869 | 101.73551 | 561 ft | 146 kts | 328° |
| 2026-05-05 14:07 | 2.73712 | 101.72985 | 370 ft | 146 kts | 328° |
| 2026-05-05 14:08 | 2.74523 | 101.72432 | 208 ft | 145 kts | 326° |
| 2026-05-05 14:08 | 2.75351 | 101.71849 | 68 ft | 138 kts | 324° |
| 2026-05-05 14:08 | 2.75851 | 101.71523 | 73 ft | 56 kts | 325° |
| 2026-05-05 14:08 | 2.76151 | 101.71324 | 70 ft | 48 kts | 326° |
| 2026-05-05 14:09 | 2.76411 | 101.71145 | 65 ft | 43 kts | 321° |
| 2026-05-05 14:09 | 2.76555 | 101.70964 | 61 ft | 26 kts | 296° |
| 2026-05-05 14:09 | 2.76509 | 101.70862 | 64 ft | 23 kts | 159° |
| 2026-05-05 14:09 | 2.76379 | 101.70945 | 62 ft | 22 kts | 143° |
| 2026-05-05 14:10 | 2.76254 | 101.71027 | 63 ft | 21 kts | 149° |
| 2026-05-05 14:10 | 2.76133 | 101.71108 | 68 ft | 21 kts | 146° |
| 2026-05-05 14:10 | 2.76020 | 101.71190 | 66 ft | 20 kts | 142° |
| 2026-05-05 14:10 | 2.75896 | 101.71219 | 71 ft | 19 kts | 217° |
| 2026-05-05 14:11 | 2.75818 | 101.71112 | 67 ft | 19 kts | 236° |
| 2026-05-05 14:11 | 2.75747 | 101.71005 | 65 ft | 18 kts | 236° |
| 2026-05-05 14:11 | 2.75678 | 101.70902 | 67 ft | 18 kts | 236° |
| 2026-05-05 14:11 | 2.75604 | 101.70811 | 71 ft | 17 kts | 204° |
| 2026-05-05 14:12 | 2.75547 | 101.70772 | 68 ft | 0 kts | 229° |
| 2026-05-05 14:12 | 2.75544 | 101.70768 | 70 ft | 1 kts | 235° |
| 2026-05-05 14:13 | 2.75535 | 101.70754 | 72 ft | 4 kts | 243° |
| 2026-05-05 14:13 | 2.75515 | 101.70736 | 70 ft | 4 kts | 180° |
| 2026-05-05 14:13 | 2.75496 | 101.70750 | 68 ft | 2 kts | 143° |
| 2026-05-05 14:13 | 2.75491 | 101.70753 | 70 ft | 1 kts | 145° |
| 2026-05-05 14:14 | 2.75485 | 101.70757 | 68 ft | 0 kts | 144° |
| 2026-05-05 14:14 | 2.75483 | 101.70758 | 68 ft | 0 kts | 145° |